Time;durP1;ratioP1;P1;durP2;ratioP2;P2;SDS_P1;SDS_P2;PMS_P1;PMS_P2;Temp;Humidity;BMP_temperature;BMP_pressure;BME280_temperature;BME280_humidity;BME280_pressure;Samples;Min_cycle;Max_cycle;Signal;HPM_P1;HPM_P2
2022/11/10 00:00:35;;;;;;;20.55;12.07;;;;;;;5.66;96.55;98212.03;1683759;85;21038;-81
2022/11/10 00:03:20;;;;;;;24.00;12.25;;;;;;;5.73;96.49;98217.27;1693925;84;21480;-81
2022/11/10 00:06:08;;;;;;;19.05;11.48;;;;;;;5.76;96.82;98211.97;1694420;85;21476;-81
2022/11/10 00:08:53;;;;;;;21.82;11.95;;;;;;;5.88;97.22;98216.28;1683612;85;21057;-82
2022/11/10 00:11:37;;;;;;;21.12;12.30;;;;;;;5.95;97.08;98210.11;1690766;83;21042;-82
2022/11/10 00:17:26;;;;;;;17.15;10.65;;;;;;;6.14;97.10;98199.47;1694070;85;21483;-82
2022/11/10 00:20:12;;;;;;;16.07;10.18;;;;;;;6.22;96.90;98194.14;1694037;84;20995;-83
2022/11/10 00:22:56;;;;;;;18.82;10.58;;;;;;;6.25;96.80;98192.78;1691850;85;21043;-83
2022/11/10 00:25:42;;;;;;;19.07;10.13;;;;;;;6.20;96.45;98187.58;1693804;84;21406;-80
2022/11/10 00:28:30;;;;;;;18.65;10.68;;;;;;;6.17;96.12;98188.47;1688427;85;20997;-82
2022/11/10 00:31:16;;;;;;;17.48;10.78;;;;;;;6.20;96.73;98182.31;1689797;85;21082;-81
2022/11/10 00:34:01;;;;;;;17.23;10.20;;;;;;;6.25;96.74;98191.03;1675151;86;20990;-81
2022/11/10 00:36:47;;;;;;;18.32;10.90;;;;;;;6.29;96.92;98187.49;1676706;83;20991;-82
2022/11/10 00:39:32;;;;;;;20.10;11.10;;;;;;;6.33;96.49;98177.80;1672418;86;21107;-82
2022/11/10 00:42:17;;;;;;;;;;;;;;;6.32;96.79;98186.13;1693141;85;21002;-82
2022/11/10 00:45:02;;;;;;;16.53;10.10;;;;;;;6.33;96.75;98189.64;1674144;85;20126;-81
2022/11/10 00:47:46;;;;;;;21.05;10.32;;;;;;;6.26;96.03;98183.99;1684141;84;21033;-81
2022/11/10 00:50:31;;;;;;;21.00;10.68;;;;;;;6.21;96.18;98184.05;1693824;85;21018;-80
2022/11/10 00:53:16;;;;;;;18.85;10.80;;;;;;;6.13;95.57;98177.54;1689660;85;21006;-80
2022/11/10 00:56:02;;;;;;;15.32;9.63;;;;;;;6.05;95.70;98181.98;1670640;85;21117;-80
2022/11/10 00:58:47;;;;;;;14.63;9.35;;;;;;;6.03;95.73;98187.72;1651874;86;21404;-80
2022/11/10 01:01:34;;;;;;;18.17;10.18;;;;;;;6.00;95.82;98181.12;1654636;86;21478;-80
2022/11/10 01:04:19;;;;;;;16.65;9.60;;;;;;;5.92;95.83;98175.49;1651419;86;21044;-80
2022/11/10 01:07:04;;;;;;;18.42;9.75;;;;;;;5.84;95.46;98179.04;1650621;86;21014;-80
2022/11/10 01:09:48;;;;;;;20.20;9.80;;;;;;;5.75;95.17;98169.47;1635969;86;21443;-80
2022/11/10 01:12:34;;;;;;;20.48;9.80;;;;;;;5.69;95.02;98175.64;1642749;86;21053;-81
2022/11/10 01:15:19;;;;;;;19.77;10.55;;;;;;;5.57;94.88;98177.94;1656766;86;20981;-81
2022/11/10 01:18:04;;;;;;;16.52;10.32;;;;;;;5.49;95.04;98183.67;1633099;86;21088;-80
2022/11/10 01:20:51;;;;;;;19.70;9.95;;;;;;;5.45;95.25;98176.68;1640240;86;21056;-80
2022/11/10 01:23:36;;;;;;;17.90;10.90;;;;;;;5.43;95.46;98182.41;1641980;86;21104;-80
2022/11/10 01:26:21;;;;;;;17.40;11.48;;;;;;;5.40;95.59;98173.63;1635808;86;21063;-80
2022/11/10 01:29:06;;;;;;;19.98;11.28;;;;;;;5.38;95.66;98179.78;1640605;86;21454;-81
2022/11/10 01:31:51;;;;;;;19.30;10.82;;;;;;;5.34;95.36;98174.99;1659377;86;21062;-80
2022/11/10 01:34:36;;;;;;;22.60;11.05;;;;;;;5.32;95.70;98175.88;1627161;86;21449;-80
2022/11/10 01:37:22;;;;;;;17.32;10.00;;;;;;;5.27;95.15;98175.89;1638276;86;21033;-80
2022/11/10 01:40:09;;;;;;;20.35;11.22;;;;;;;5.22;95.45;98181.19;1637511;86;21056;-80
2022/11/10 01:42:57;;;;;;;22.85;10.93;;;;;;;5.23;95.76;98187.33;1637534;87;21599;-80
2022/11/10 01:46:00;;;;;;;19.35;10.38;;;;;;;5.15;95.68;98180.80;1623878;86;21029;-79
2022/11/10 01:48:59;;;;;;;28.17;11.12;;;;;;;5.12;95.97;98180.34;1627093;87;21052;-79
2022/11/10 01:52:03;;;;;;;23.20;10.90;;;;;;;5.11;96.15;98177.75;1656242;86;21045;-80
2022/11/10 01:54:49;;;;;;;20.92;10.90;;;;;;;5.09;95.89;98182.11;1648161;86;21505;-80
2022/11/10 01:57:36;;;;;;;18.02;10.55;;;;;;;5.07;96.25;98187.83;1668905;85;21071;-80
2022/11/10 02:00:22;;;;;;;19.65;10.03;;;;;;;5.03;95.83;98186.97;1655156;86;20981;-80
2022/11/10 02:03:18;;;;;;;23.80;10.78;;;;;;;4.99;96.23;98187.40;1682846;85;21001;-80
2022/11/10 02:06:04;;;;;;;19.35;9.90;;;;;;;4.98;96.37;98188.28;1684190;85;21406;-81
2022/11/10 02:08:50;;;;;;;21.02;10.18;;;;;;;4.95;96.09;98192.69;1674498;85;20999;-81
2022/11/10 02:11:37;;;;;;;18.52;10.10;;;;;;;4.95;96.17;98192.69;1681394;84;21052;-81
2022/11/10 02:14:23;;;;;;;17.60;10.50;;;;;;;4.98;96.10;98193.54;1675721;85;20983;-81
2022/11/10 02:17:10;;;;;;;20.00;11.10;;;;;;;5.05;96.19;98198.77;1688439;84;21043;-81
2022/11/10 02:20:03;;;;;;;16.10;10.05;;;;;;;5.06;96.05;98197.91;1682303;85;21023;-80
2022/11/10 02:22:49;;;;;;;14.80;8.70;;;;;;;5.06;95.76;98205.33;1681679;85;20988;-80
2022/11/10 02:25:34;;;;;;;15.75;8.53;;;;;;;5.02;95.81;98201.84;1685643;84;20983;-80
2022/11/10 02:28:18;;;;;;;16.48;8.43;;;;;;;5.05;96.44;98191.77;1679661;85;21008;-80
2022/11/10 02:31:05;;;;;;;16.35;9.25;;;;;;;5.09;96.14;98193.94;1680778;84;20991;-80
2022/11/10 02:33:49;;;;;;;16.35;8.05;;;;;;;5.17;96.38;98195.22;1683253;85;20994;-80
2022/11/10 02:36:34;;;;;;;;;;;;;;;5.25;96.30;98196.95;1688870;85;20959;-79
2022/11/10 02:39:19;;;;;;;12.73;7.70;;;;;;;5.26;96.25;98196.48;1694464;84;20110;-80
2022/11/10 02:42:09;;;;;;;14.18;8.68;;;;;;;5.31;96.33;98200.42;1678296;85;21021;-79
2022/11/10 02:44:51;;;;;;;14.30;8.10;;;;;;;5.38;96.52;98195.55;1692856;85;21057;-80
2022/11/10 02:47:36;;;;;;;14.60;8.13;;;;;;;5.46;96.25;98197.70;1692437;85;21452;-71
2022/11/10 02:50:21;;;;;;;13.25;8.18;;;;;;;5.45;95.92;98194.66;1693982;85;21038;-71
2022/11/10 02:53:07;;;;;;;16.55;8.95;;;;;;;5.39;95.92;98197.30;1687895;84;21078;-80
2022/11/10 02:55:53;;;;;;;16.55;8.85;;;;;;;5.36;96.17;98207.38;1691438;83;21494;-80
2022/11/10 02:58:38;;;;;;;15.75;8.88;;;;;;;5.36;96.12;98203.90;1638537;86;21494;-80
2022/11/10 03:01:23;;;;;;;15.60;8.90;;;;;;;5.28;95.53;98211.83;1660035;86;21027;-81
2022/11/10 03:04:07;;;;;;;20.80;9.50;;;;;;;5.24;95.70;98212.25;1629151;86;21038;-81
2022/11/10 03:06:53;;;;;;;16.87;9.00;;;;;;;5.17;95.21;98216.23;1651453;86;21067;-80
2022/11/10 03:09:38;;;;;;;20.45;9.00;;;;;;;5.09;95.39;98217.58;1641730;87;21040;-80
2022/11/10 03:12:23;;;;;;;18.95;9.03;;;;;;;5.04;95.42;98225.49;1647458;86;20965;-81
2022/11/10 03:15:09;;;;;;;20.82;8.35;;;;;;;4.91;94.85;98223.35;1642345;86;21080;-81
2022/11/10 03:17:54;;;;;;;12.15;7.85;;;;;;;4.82;95.25;98225.54;1653716;86;21466;-80
2022/11/10 03:20:40;;;;;;;16.12;9.40;;;;;;;4.74;95.68;98227.33;1642138;86;21087;-80
2022/11/10 03:23:24;;;;;;;17.57;7.78;;;;;;;4.68;95.65;98234.77;1646822;86;20988;-81
2022/11/10 03:26:09;;;;;;;18.07;8.33;;;;;;;4.67;95.81;98230.83;1650224;86;20969;-81
2022/11/10 03:28:54;;;;;;;12.18;7.53;;;;;;;4.60;95.28;98239.16;1648432;86;21021;-81
2022/11/10 03:31:39;;;;;;;17.62;8.75;;;;;;;4.49;95.80;98236.11;1635991;86;21091;-82
2022/11/10 03:34:24;;;;;;;13.60;8.23;;;;;;;4.46;96.04;98241.80;1645980;86;21041;-82
2022/11/10 03:37:10;;;;;;;17.70;7.87;;;;;;;4.40;95.90;98237.42;1657566;85;22111;-82
2022/11/10 03:39:55;;;;;;;13.70;7.83;;;;;;;4.42;95.79;98230.45;1610251;88;21065;-82
2022/11/10 03:42:45;;;;;;;19.92;8.68;;;;;;;4.42;95.88;98236.12;1649030;86;21649;-82
2022/11/10 03:45:29;;;;;;;14.23;8.63;;;;;;;4.39;95.91;98234.38;1649435;86;21040;-80
2022/11/10 03:48:14;;;;;;;24.00;9.10;;;;;;;4.33;95.40;98243.56;1643392;86;21411;-80
2022/11/10 03:50:59;;;;;;;16.30;8.60;;;;;;;4.32;95.85;98239.20;1641945;86;21029;-81
2022/11/10 03:53:44;;;;;;;19.82;8.50;;;;;;;4.33;95.69;98248.36;1654655;86;21008;-81
2022/11/10 03:56:29;;;;;;;21.42;8.68;;;;;;;4.26;95.54;98254.92;1651397;85;21131;-81
2022/11/10 03:59:13;;;;;;;17.82;8.80;;;;;;;4.17;95.93;98243.58;1675387;86;21495;-81
2022/11/10 04:01:58;;;;;;;16.70;8.10;;;;;;;4.13;95.97;98244.87;1661949;86;21483;-81
2022/11/10 04:10:43;;;;;;;18.27;9.23;;;;;;;4.20;96.57;98255.36;1635479;84;21101;-81
2022/11/10 04:16:32;;;;;;;20.52;9.28;;;;;;;4.26;96.09;98255.81;1685561;85;21170;-80
2022/11/10 04:19:16;;;;;;;;;;;;;;;4.25;96.06;98253.18;1682808;85;21067;-79
2022/11/10 04:22:01;;;;;;;21.37;10.00;;;;;;;4.28;96.35;98251.88;1684794;85;20426;-79
2022/11/10 04:24:46;;;;;;;16.60;9.20;;;;;;;4.29;96.06;98256.24;1694273;84;21507;-80
2022/11/10 04:27:31;;;;;;;21.17;9.80;;;;;;;4.31;95.99;98257.99;1688707;85;20974;-80
2022/11/10 04:30:16;;;;;;;21.80;10.35;;;;;;;4.34;95.82;98254.07;1696718;83;21089;-79
2022/11/10 04:33:01;;;;;;;18.27;10.13;;;;;;;4.38;95.61;98254.05;1693458;83;21474;-79
2022/11/10 04:35:45;;;;;;;18.30;9.93;;;;;;;4.36;95.73;98257.55;1668596;86;21105;-79
2022/11/10 04:38:30;;;;;;;17.20;9.10;;;;;;;4.42;96.08;98257.11;1673993;86;21095;-80
2022/11/10 04:41:16;;;;;;;20.43;9.73;;;;;;;4.46;96.42;98267.62;1672187;86;21068;-80
2022/11/10 04:44:02;;;;;;;21.23;10.65;;;;;;;4.48;96.41;98262.34;1673591;85;21111;-80
2022/11/10 04:46:47;;;;;;;18.50;9.48;;;;;;;4.53;96.76;98256.66;1691072;85;21024;-80
2022/11/10 04:49:32;;;;;;;17.30;9.65;;;;;;;4.57;96.57;98254.92;1693097;84;21045;-80
2022/11/10 04:52:17;;;;;;;16.00;8.83;;;;;;;4.67;96.96;98254.45;1688164;85;21005;-80
2022/11/10 04:55:01;;;;;;;17.15;9.13;;;;;;;4.76;96.72;98250.51;1673745;86;21459;-80
2022/11/10 04:57:46;;;;;;;19.52;9.18;;;;;;;4.84;96.79;98251.38;1675507;84;21111;-80
2022/11/10 05:00:32;;;;;;;18.75;9.43;;;;;;;4.95;96.79;98250.47;1662529;86;21016;-80
2022/11/10 05:03:17;;;;;;;19.05;9.10;;;;;;;5.04;96.97;98243.88;1668265;86;21074;-80
2022/11/10 05:06:03;;;;;;;18.12;9.75;;;;;;;5.07;96.05;98254.81;1665412;86;21041;-80
2022/11/10 05:08:48;;;;;;;15.53;8.40;;;;;;;5.09;96.31;98255.24;1662501;86;21020;-80
2022/11/10 05:11:33;;;;;;;17.90;9.35;;;;;;;5.10;96.03;98250.42;1668407;86;21427;-79
2022/11/10 05:14:18;;;;;;;18.80;8.60;;;;;;;5.05;95.92;98252.19;1675351;86;21012;-79
2022/11/10 05:17:03;;;;;;;17.27;8.85;;;;;;;4.97;95.85;98259.20;1672109;86;21042;-80
2022/11/10 05:19:48;;;;;;;16.65;9.68;;;;;;;4.89;95.86;98263.17;1683883;85;21038;-81
2022/11/10 05:22:33;;;;;;;18.73;9.28;;;;;;;4.88;96.05;98271.51;1682211;85;20983;-79
2022/11/10 05:25:18;;;;;;;15.48;8.93;;;;;;;4.83;95.85;98269.33;1692404;85;21435;-80
2022/11/10 05:28:04;;;;;;;18.12;9.60;;;;;;;4.78;95.69;98272.41;1668581;86;21004;-79
2022/11/10 05:30:49;;;;;;;18.07;10.10;;;;;;;4.80;96.20;98269.32;1676063;86;20981;-79
2022/11/10 05:33:36;;;;;;;24.23;9.60;;;;;;;4.80;96.28;98271.06;1690413;85;21040;-79
2022/11/10 05:36:21;;;;;;;21.80;9.50;;;;;;;4.81;96.03;98279.41;1676003;86;21060;-79
2022/11/10 05:39:06;;;;;;;20.65;9.38;;;;;;;4.75;95.85;98278.54;1672793;84;21140;-79
2022/11/10 05:41:51;;;;;;;22.02;10.38;;;;;;;4.70;95.68;98281.58;1677924;84;21005;-79
2022/11/10 05:44:37;;;;;;;18.70;9.68;;;;;;;4.65;95.65;98283.34;1691657;84;21558;-80
2022/11/10 05:47:22;;;;;;;21.05;10.23;;;;;;;4.65;96.22;98286.42;1684702;84;21037;-79
2022/11/10 05:50:08;;;;;;;23.12;10.53;;;;;;;4.67;96.17;98281.60;1687065;85;21078;-78
2022/11/10 05:52:54;;;;;;;21.23;10.80;;;;;;;4.68;96.31;98293.84;1669946;85;20960;-78
2022/11/10 05:55:39;;;;;;;21.05;10.65;;;;;;;4.72;96.37;98282.89;1677342;84;21017;-78
2022/11/10 05:58:24;;;;;;;21.07;11.33;;;;;;;4.74;96.23;98283.78;1690322;84;20996;-78
2022/11/10 06:01:09;;;;;;;26.80;13.62;;;;;;;4.75;95.98;98294.29;1654749;85;21053;-80
2022/11/10 06:03:54;;;;;;;19.90;10.63;;;;;;;4.69;95.72;98302.16;1695190;83;21012;-80
2022/11/10 06:06:39;;;;;;;25.08;11.28;;;;;;;4.70;96.06;98304.35;1704780;83;21452;-81
2022/11/10 06:09:24;;;;;;;;;;;;;;;4.72;96.08;98311.35;1674484;85;21391;-80
2022/11/10 06:12:08;;;;;;;22.93;10.43;;;;;;;4.68;95.77;98306.09;1702609;83;20095;-80
2022/11/10 06:14:53;;;;;;;22.48;10.80;;;;;;;4.66;95.89;98311.79;1695510;84;21028;-80
2022/11/10 06:17:38;;;;;;;20.35;10.78;;;;;;;4.68;96.09;98308.71;1668487;84;21010;-80
2022/11/10 06:20:24;;;;;;;21.12;10.95;;;;;;;4.72;96.43;98310.04;1695071;84;20989;-81
2022/11/10 06:23:11;;;;;;;23.83;11.25;;;;;;;4.74;96.11;98311.36;1685741;84;21494;-78
2022/11/10 06:25:56;;;;;;;23.80;12.07;;;;;;;4.74;96.34;98313.52;1702822;84;21020;-79
2022/11/10 06:28:41;;;;;;;25.37;11.57;;;;;;;4.74;96.52;98324.03;1671383;85;21047;-78
2022/11/10 06:31:26;;;;;;;22.52;11.35;;;;;;;4.80;96.61;98328.41;1669939;85;21076;-79
2022/11/10 06:34:12;;;;;;;19.77;10.88;;;;;;;4.86;96.78;98336.73;1707669;83;20997;-79
2022/11/10 06:36:57;;;;;;;22.93;12.43;;;;;;;4.94;96.74;98329.70;1699453;84;21006;-79
2022/11/10 06:39:41;;;;;;;22.67;11.18;;;;;;;5.00;96.75;98339.33;1695907;84;21067;-79
2022/11/10 06:42:27;;;;;;;25.40;12.00;;;;;;;5.01;96.40;98336.70;1690759;83;20996;-81
2022/11/10 06:45:11;;;;;;;28.12;13.05;;;;;;;5.04;96.15;98341.50;1690314;83;21039;-80
2022/11/10 06:48:07;;;;;;;29.60;13.72;;;;;;;5.03;96.04;98338.02;1703256;83;21047;-82
2022/11/10 06:50:52;;;;;;;38.15;16.85;;;;;;;4.99;96.29;98340.22;1683421;84;21571;-81
2022/11/10 06:53:37;;;;;;;35.45;16.62;;;;;;;5.00;96.20;98340.22;1703036;83;21067;-80
2022/11/10 06:56:22;;;;;;;38.30;17.42;;;;;;;5.05;96.36;98344.56;1677393;85;21066;-80
2022/11/10 06:59:07;;;;;;;37.42;16.25;;;;;;;5.09;96.79;98343.26;1695539;83;21033;-78
2022/11/10 07:01:52;;;;;;;30.30;13.83;;;;;;;5.13;96.66;98347.63;1674622;84;21032;-79
2022/11/10 07:04:37;;;;;;;30.25;13.80;;;;;;;5.18;96.29;98346.75;1667816;84;21482;-78
2022/11/10 07:07:22;;;;;;;32.60;14.85;;;;;;;5.24;95.85;98345.42;1666768;84;21032;-79
2022/11/10 07:10:08;;;;;;;33.35;15.45;;;;;;;5.28;96.14;98349.80;1671218;84;21080;-80
2022/11/10 07:13:01;;;;;;;28.17;12.93;;;;;;;5.32;95.79;98348.91;1682175;83;21040;-79
2022/11/10 07:15:47;;;;;;;29.77;13.95;;;;;;;5.35;95.79;98345.40;1687315;84;21763;-79
2022/11/10 07:18:34;;;;;;;32.83;14.45;;;;;;;5.44;96.17;98353.23;1688987;84;21024;-80
2022/11/10 07:21:19;;;;;;;27.25;13.62;;;;;;;5.51;96.16;98347.52;1693021;84;20998;-80
2022/11/10 07:24:05;;;;;;;29.80;13.70;;;;;;;5.62;96.12;98345.75;1689294;84;21321;-80
2022/11/10 07:26:50;;;;;;;30.35;13.72;;;;;;;5.67;95.97;98347.91;1684232;83;21450;-80
2022/11/10 07:29:34;;;;;;;;;;;;;;;5.72;95.89;98339.98;1675903;85;21044;-81
2022/11/10 07:32:19;;;;;;;20.77;11.20;;;;;;;5.80;96.17;98351.36;1662132;85;20107;-80
2022/11/10 07:35:04;;;;;;;24.77;11.63;;;;;;;5.88;95.67;98350.01;1688570;84;20993;-80
2022/11/10 07:37:49;;;;;;;23.25;10.85;;;;;;;5.97;95.36;98354.80;1693318;84;20974;-80
2022/11/10 07:40:35;;;;;;;21.37;10.70;;;;;;;6.07;95.94;98351.27;1672797;83;20969;-80
2022/11/10 07:43:23;;;;;;;36.48;17.90;;;;;;;6.20;96.03;98358.18;1658436;85;22152;-81
2022/11/10 07:46:09;;;;;;;37.53;18.05;;;;;;;6.30;95.52;98359.44;1688795;84;20969;-78
2022/11/10 07:48:54;;;;;;;31.05;16.75;;;;;;;6.37;95.41;98361.17;1668864;84;21017;-77
2022/11/10 07:51:39;;;;;;;20.68;11.55;;;;;;;6.37;94.74;98358.53;1677986;84;21029;-78
2022/11/10 07:54:24;;;;;;;15.03;9.20;;;;;;;6.39;94.82;98364.65;1671046;84;20985;-77
2022/11/10 07:57:09;;;;;;;16.95;9.20;;;;;;;6.37;94.14;98374.33;1680313;84;20989;-79
2022/11/10 07:59:55;;;;;;;17.80;10.08;;;;;;;6.30;94.28;98374.81;1695714;84;21395;-78
2022/11/10 08:02:42;;;;;;;15.23;9.23;;;;;;;6.33;94.59;98382.70;1674007;85;21009;-80
2022/11/10 08:05:30;;;;;;;15.32;9.23;;;;;;;6.32;94.48;98380.92;1657983;85;21497;-78
2022/11/10 08:08:16;;;;;;;16.40;8.88;;;;;;;6.35;94.54;98372.13;1651933;85;21412;-80
2022/11/10 08:11:00;;;;;;;16.70;9.28;;;;;;;6.38;94.29;98377.39;1656274;85;21039;-78
2022/11/10 08:13:48;;;;;;;16.82;9.10;;;;;;;6.39;94.03;98385.71;1656622;85;21006;-78
2022/11/10 08:16:37;;;;;;;16.75;8.60;;;;;;;6.41;94.31;98375.17;1657373;85;21397;-79
2022/11/10 08:19:23;;;;;;;15.20;8.68;;;;;;;6.46;94.21;98381.28;1653495;85;21463;-79
2022/11/10 08:22:12;;;;;;;12.47;7.80;;;;;;;6.49;94.19;98384.34;1686023;85;20973;-78
2022/11/10 08:24:57;;;;;;;14.68;8.68;;;;;;;6.48;93.84;98390.06;1682855;84;21048;-79
2022/11/10 08:27:41;;;;;;;13.70;8.48;;;;;;;6.52;94.00;98397.50;1657542;86;21081;-78
2022/11/10 08:30:31;;;;;;;11.90;7.62;;;;;;;6.54;93.89;98402.30;1674499;86;21124;-78
2022/11/10 08:33:20;;;;;;;12.15;7.70;;;;;;;6.55;93.90;98393.50;1666395;85;21045;-79
2022/11/10 08:36:05;;;;;;;15.58;9.08;;;;;;;6.54;93.26;98402.30;1686080;84;21063;-79
2022/11/10 08:38:54;;;;;;;12.60;8.35;;;;;;;6.54;93.50;98404.50;1678881;84;21056;-78
2022/11/10 08:41:46;;;;;;;12.43;7.42;;;;;;;6.58;93.83;98406.66;1675683;84;21544;-78
2022/11/10 08:44:33;;;;;;;16.12;7.78;;;;;;;6.60;93.53;98411.03;1671685;84;21032;-78
2022/11/10 08:47:21;;;;;;;11.45;7.37;;;;;;;6.63;93.51;98404.87;1672249;83;21490;-80
2022/11/10 08:50:09;;;;;;;13.05;7.95;;;;;;;6.65;93.48;98407.07;1689569;84;21099;-78
2022/11/10 08:53:06;;;;;;;13.62;7.92;;;;;;;6.65;93.16;98406.19;1696215;84;21084;-79
2022/11/10 08:55:59;;;;;;;13.87;8.57;;;;;;;6.68;93.48;98411.44;1648242;86;21475;-79
2022/11/10 08:58:46;;;;;;;17.55;10.08;;;;;;;6.71;93.49;98418.88;1662323;85;21025;-78
2022/11/10 09:01:32;;;;;;;20.82;10.23;;;;;;;6.73;93.48;98410.97;1672023;85;21029;-78
2022/11/10 09:04:19;;;;;;;16.85;10.10;;;;;;;6.76;93.29;98412.70;1669046;84;21022;-73
2022/11/10 09:07:07;;;;;;;23.87;10.53;;;;;;;6.78;93.24;98418.81;1710736;84;20986;-73
2022/11/10 09:09:53;;;;;;;26.12;11.48;;;;;;;6.81;93.33;98427.56;1688440;84;21077;-73
2022/11/10 09:12:40;;;;;;;24.40;11.25;;;;;;;6.83;93.24;98420.97;1696947;84;20987;-74
2022/11/10 09:15:26;;;;;;;24.00;12.00;;;;;;;6.87;93.23;98429.29;1696041;84;21004;-74
2022/11/10 09:18:16;;;;;;;21.10;10.80;;;;;;;6.88;92.27;98432.81;1697046;84;21020;-75
2022/11/10 09:21:10;;;;;;;14.80;8.90;;;;;;;6.86;92.52;98419.18;1704126;84;20993;-75
2022/11/10 09:23:52;;;;;;;15.13;9.15;;;;;;;6.86;92.23;98421.81;1695396;84;21017;-73
2022/11/10 09:26:37;;;;;;;15.98;9.28;;;;;;;6.86;92.72;98434.13;1697482;84;21080;-75
2022/11/10 09:29:24;;;;;;;18.70;9.90;;;;;;;6.91;92.93;98420.91;1683284;84;21020;-74
2022/11/10 09:32:10;;;;;;;16.32;9.13;;;;;;;6.95;92.89;98425.28;1681473;85;21450;-75
2022/11/10 09:34:55;;;;;;;14.25;8.78;;;;;;;6.93;92.66;98431.87;1699599;84;21410;-74
2022/11/10 09:37:42;;;;;;;15.40;9.10;;;;;;;6.98;92.79;98432.70;1699986;84;20973;-75
2022/11/10 09:40:42;;;;;;;16.27;8.90;;;;;;;7.05;92.82;98426.09;1683060;84;21012;-75
2022/11/10 09:43:56;;;;;;;19.40;9.73;;;;;;;7.10;91.51;98433.05;1702159;84;20988;-74
2022/11/10 09:46:49;;;;;;;20.10;11.25;;;;;;;7.17;91.86;98435.20;1702434;84;21594;-74
2022/11/10 09:49:38;;;;;;;19.70;11.25;;;;;;;7.29;91.64;98428.05;1670436;85;21033;-74
2022/11/10 09:52:29;;;;;;;19.23;9.90;;;;;;;7.35;90.58;98420.11;1670609;85;21008;-74
2022/11/10 09:55:34;;;;;;;18.45;10.38;;;;;;;7.42;91.04;98420.92;1670517;85;20965;-74
2022/11/10 09:58:24;;;;;;;21.93;12.00;;;;;;;7.50;90.94;98416.00;1691333;82;21025;-74
2022/11/10 10:01:15;;;;;;;21.73;11.97;;;;;;;7.63;90.15;98407.50;1655986;86;21012;-74
2022/11/10 10:04:15;;;;;;;26.00;12.40;;;;;;;7.75;91.33;98407.81;1659898;86;21451;-74
2022/11/10 10:07:17;;;;;;;25.25;12.35;;;;;;;7.88;91.16;98419.09;1666559;86;20997;-74
2022/11/10 10:10:34;;;;;;;24.12;13.18;;;;;;;7.92;90.42;98418.60;1664036;86;21018;-74
2022/11/10 10:13:47;;;;;;;24.25;13.53;;;;;;;8.01;90.58;98415.86;1668983;85;21045;-74
2022/11/10 10:17:05;;;;;;;25.35;12.70;;;;;;;8.10;90.92;98410.05;1676190;85;21017;-74
2022/11/10 10:20:38;;;;;;;25.23;13.03;;;;;;;8.12;90.74;98409.56;1691347;84;21008;-74
2022/11/10 10:23:35;;;;;;;23.90;13.28;;;;;;;8.09;90.23;98409.16;1662133;85;21033;-75
2022/11/10 10:26:26;;;;;;;26.60;13.18;;;;;;;8.11;89.41;98404.75;1676440;85;20985;-74
2022/11/10 10:29:15;;;;;;;22.62;12.75;;;;;;;8.06;88.64;98415.81;1696915;84;21646;-74
2022/11/10 10:32:02;;;;;;;27.40;13.75;;;;;;;8.03;88.84;98419.80;1694378;85;21030;-75
2022/11/10 10:34:48;;;;;;;26.62;13.80;;;;;;;8.06;89.54;98417.13;1674662;85;21023;-74
2022/11/10 10:37:51;;;;;;;30.20;14.80;;;;;;;8.08;89.62;98417.09;1692537;84;21000;-74
2022/11/10 10:40:37;;;;;;;28.73;14.95;;;;;;;7.97;88.49;98420.73;1694470;84;20987;-74
2022/11/10 10:43:24;;;;;;;29.50;15.20;;;;;;;7.89;88.91;98419.52;1694583;85;20979;-74
2022/11/10 10:46:19;;;;;;;28.17;15.15;;;;;;;7.92;89.25;98424.77;1694501;85;20994;-75
2022/11/10 10:49:17;;;;;;;24.25;12.53;;;;;;;7.94;89.14;98418.16;1692195;85;21485;-75
2022/11/10 10:52:07;;;;;;;23.90;13.28;;;;;;;7.93;89.02;98416.38;1663968;86;21535;-75
2022/11/10 10:55:08;;;;;;;33.20;16.73;;;;;;;7.89;88.67;98412.06;1664787;85;21064;-75
2022/11/10 10:58:32;;;;;;;26.25;13.95;;;;;;;7.85;88.64;98416.95;1666535;85;21039;-74
2022/11/10 11:01:33;;;;;;;28.90;13.30;;;;;;;7.82;88.87;98419.17;1660046;86;20978;-75
2022/11/10 11:04:36;;;;;;;23.05;14.47;;;;;;;7.83;89.13;98418.70;1684017;85;21013;-75
2022/11/10 11:07:26;;;;;;;23.12;12.73;;;;;;;7.83;88.98;98417.39;1696842;83;21037;-75
2022/11/10 11:10:30;;;;;;;23.40;11.33;;;;;;;7.83;88.75;98418.27;1681339;85;21013;-75
2022/11/10 11:13:28;;;;;;;17.70;10.68;;;;;;;7.85;89.07;98411.20;1675187;85;21001;-75
2022/11/10 11:16:15;;;;;;;18.55;10.65;;;;;;;7.88;89.07;98407.66;1684343;85;20989;-75
2022/11/10 11:19:01;;;;;;;23.50;12.23;;;;;;;7.89;88.72;98414.70;1700962;84;20989;-76
2022/11/10 11:22:23;;;;;;;20.75;12.33;;;;;;;7.86;88.63;98416.05;1670867;85;21021;-75
2022/11/10 11:25:38;;;;;;;22.45;11.45;;;;;;;7.88;88.40;98414.25;1662686;85;20981;-74
2022/11/10 11:28:45;;;;;;;22.87;11.95;;;;;;;7.85;88.52;98418.27;1678975;85;21466;-74
2022/11/10 11:31:53;;;;;;;16.87;10.13;;;;;;;7.85;88.85;98420.44;1667810;85;21032;-73
2022/11/10 11:34:52;;;;;;;16.07;9.25;;;;;;;7.87;88.69;98429.23;1689906;84;21044;-75
2022/11/10 11:37:48;;;;;;;15.43;8.80;;;;;;;7.86;88.73;98420.89;1689449;84;21012;-75
2022/11/10 11:40:51;;;;;;;14.60;9.08;;;;;;;7.89;88.81;98430.53;1678245;85;21407;-75
2022/11/10 11:43:56;;;;;;;16.32;10.18;;;;;;;7.92;89.05;98431.36;1683640;84;20996;-75
2022/11/10 11:46:59;;;;;;;18.45;9.98;;;;;;;7.96;89.01;98422.95;1689284;83;21033;-75
2022/11/10 11:49:52;;;;;;;17.75;9.73;;;;;;;7.99;88.89;98428.64;1676286;84;20950;-75
2022/11/10 11:52:58;;;;;;;15.00;9.40;;;;;;;8.01;88.93;98427.73;1669654;85;21438;-74
2022/11/10 11:56:16;;;;;;;14.98;9.05;;;;;;;8.03;88.95;98425.08;1638119;86;21426;-74
2022/11/10 11:59:51;;;;;;;16.80;10.05;;;;;;;8.03;88.80;98414.52;1690385;83;20986;-76
2022/11/10 12:03:11;;;;;;;20.68;11.43;;;;;;;8.01;88.67;98413.69;1656771;85;21017;-74
2022/11/10 12:06:18;;;;;;;23.57;11.97;;;;;;;7.99;88.64;98423.37;1664521;85;20961;-75
2022/11/10 12:09:35;;;;;;;25.62;13.45;;;;;;;7.96;88.72;98425.59;1666840;85;20972;-76
2022/11/10 12:12:44;;;;;;;25.72;13.83;;;;;;;7.96;88.88;98428.23;1668134;85;21049;-75
2022/11/10 12:15:53;;;;;;;32.50;16.25;;;;;;;7.96;88.73;98427.34;1662081;85;21037;-75
2022/11/10 12:18:45;;;;;;;30.37;16.30;;;;;;;7.96;88.79;98420.75;1667432;85;21140;-75
2022/11/10 12:21:57;;;;;;;33.13;15.28;;;;;;;7.96;88.53;98425.59;1673230;85;21000;-75
2022/11/10 12:24:59;;;;;;;33.90;16.35;;;;;;;7.98;88.77;98423.83;1666813;84;21028;-74
2022/11/10 12:28:27;;;;;;;38.88;18.30;;;;;;;8.01;88.75;98430.84;1693409;84;21047;-74
2022/11/10 12:31:17;;;;;;;31.55;18.32;;;;;;;8.06;88.51;98433.83;1597962;89;21084;-74
2022/11/10 12:34:19;;;;;;;29.10;16.95;;;;;;;8.16;88.65;98434.60;1646230;87;21024;-74
2022/11/10 12:37:10;;;;;;;31.87;17.35;;;;;;;8.24;88.72;98438.89;1689115;83;20991;-75
2022/11/10 12:40:19;;;;;;;31.30;17.23;;;;;;;8.34;88.31;98435.70;1644037;86;20957;-74
2022/11/10 12:43:12;;;;;;;34.18;17.52;;;;;;;8.43;88.50;98439.55;1689416;83;21436;-74
2022/11/10 12:46:04;;;;;;;37.35;18.62;;;;;;;8.49;88.33;98446.05;1661893;86;21016;-75
2022/11/10 12:49:17;;;;;;;32.42;16.93;;;;;;;8.54;87.88;98445.57;1660868;86;20982;-75
2022/11/10 12:52:16;;;;;;;23.52;12.43;;;;;;;8.61;88.04;98448.13;1672994;85;21030;-75
2022/11/10 12:55:02;;;;;;;30.62;13.20;;;;;;;8.63;88.14;98448.99;1687879;85;21020;-75
2022/11/10 12:57:51;;;;;;;25.25;13.95;;;;;;;8.64;87.87;98455.55;1689983;84;21040;-75
2022/11/10 13:00:41;;;;;;;33.05;14.30;;;;;;;8.65;87.95;98463.04;1695743;84;20990;-75
2022/11/10 13:03:30;;;;;;;29.18;12.15;;;;;;;8.68;88.11;98460.36;1696907;84;21002;-74
2022/11/10 13:06:29;;;;;;;24.98;14.00;;;;;;;8.69;87.96;98459.46;1699471;84;20963;-75
2022/11/10 13:09:34;;;;;;;26.87;13.25;;;;;;;8.75;88.13;98455.41;1675492;84;21450;-74
2022/11/10 13:12:22;;;;;;;27.17;14.58;;;;;;;8.76;87.33;98457.61;1684221;84;20996;-75
2022/11/10 13:15:38;;;;;;;23.55;13.58;;;;;;;8.74;87.66;98460.27;1678021;83;21462;-75
2022/11/10 13:18:31;;;;;;;25.52;13.28;;;;;;;8.79;87.62;98460.19;1667789;84;21510;-74
2022/11/10 13:21:22;;;;;;;28.73;13.45;;;;;;;8.75;87.22;98470.41;1665378;84;21043;-75
2022/11/10 13:24:33;;;;;;;32.38;12.35;;;;;;;8.75;87.35;98464.65;1684280;84;21470;-72
2022/11/10 13:27:43;;;;;;;21.30;11.78;;;;;;;8.76;87.37;98458.46;1700792;84;21485;-75